sensor_id;sensor_type;location;lat;lon;timestamp;P1;durP1;ratioP1;P2;durP2;ratioP2
64678;SDS011;51094;53.864;27.676;2022-12-07T00:01:18;3.83;;;3.72;;
64678;SDS011;51094;53.864;27.676;2022-12-07T00:03:48;4.15;;;4.05;;
64678;SDS011;51094;53.864;27.676;2022-12-07T00:06:16;4.18;;;4.07;;
64678;SDS011;51094;53.864;27.676;2022-12-07T00:08:44;3.88;;;3.78;;
64678;SDS011;51094;53.864;27.676;2022-12-07T00:11:12;3.78;;;3.67;;
64678;SDS011;51094;53.864;27.676;2022-12-07T00:13:41;4.32;;;4.22;;
64678;SDS011;51094;53.864;27.676;2022-12-07T00:16:10;4.15;;;4.05;;
64678;SDS011;51094;53.864;27.676;2022-12-07T00:18:37;4.13;;;4.03;;
64678;SDS011;51094;53.864;27.676;2022-12-07T00:21:08;4.18;;;4.07;;
64678;SDS011;51094;53.864;27.676;2022-12-07T00:23:37;4.03;;;3.92;;
64678;SDS011;51094;53.864;27.676;2022-12-07T00:28:45;4.10;;;4.00;;
64678;SDS011;51094;53.864;27.676;2022-12-07T00:31:14;4.22;;;4.13;;
64678;SDS011;51094;53.864;27.676;2022-12-07T00:33:47;3.88;;;3.78;;
64678;SDS011;51094;53.864;27.676;2022-12-07T00:36:15;4.13;;;4.03;;
64678;SDS011;51094;53.864;27.676;2022-12-07T00:38:51;4.55;;;4.45;;
64678;SDS011;51094;53.864;27.676;2022-12-07T00:41:19;4.18;;;4.07;;
64678;SDS011;51094;53.864;27.676;2022-12-07T00:43:48;3.75;;;3.65;;
64678;SDS011;51094;53.864;27.676;2022-12-07T00:46:16;3.90;;;3.80;;
64678;SDS011;51094;53.864;27.676;2022-12-07T00:48:44;3.70;;;3.63;;
64678;SDS011;51094;53.864;27.676;2022-12-07T00:51:12;3.38;;;3.30;;
64678;SDS011;51094;53.864;27.676;2022-12-07T00:53:40;3.55;;;3.45;;
64678;SDS011;51094;53.864;27.676;2022-12-07T00:56:08;3.45;;;3.45;;
64678;SDS011;51094;53.864;27.676;2022-12-07T00:58:37;3.72;;;3.67;;
64678;SDS011;51094;53.864;27.676;2022-12-07T01:01:05;3.85;;;3.85;;
64678;SDS011;51094;53.864;27.676;2022-12-07T01:03:33;3.53;;;3.50;;
64678;SDS011;51094;53.864;27.676;2022-12-07T01:06:00;3.65;;;3.65;;
64678;SDS011;51094;53.864;27.676;2022-12-07T01:08:27;3.70;;;3.60;;
64678;SDS011;51094;53.864;27.676;2022-12-07T01:11:14;3.78;;;3.67;;
64678;SDS011;51094;53.864;27.676;2022-12-07T01:13:43;3.88;;;3.78;;
64678;SDS011;51094;53.864;27.676;2022-12-07T01:16:11;4.07;;;3.97;;
64678;SDS011;51094;53.864;27.676;2022-12-07T01:23:39;4.10;;;4.00;;
64678;SDS011;51094;53.864;27.676;2022-12-07T01:26:07;3.45;;;3.45;;
64678;SDS011;51094;53.864;27.676;2022-12-07T01:28:37;3.80;;;3.70;;
64678;SDS011;51094;53.864;27.676;2022-12-07T01:31:09;3.67;;;3.67;;
64678;SDS011;51094;53.864;27.676;2022-12-07T01:33:44;3.47;;;3.47;;
64678;SDS011;51094;53.864;27.676;2022-12-07T01:36:20;3.50;;;3.40;;
64678;SDS011;51094;53.864;27.676;2022-12-07T01:38:47;3.35;;;3.35;;
64678;SDS011;51094;53.864;27.676;2022-12-07T01:41:18;3.65;;;3.55;;
64678;SDS011;51094;53.864;27.676;2022-12-07T01:46:34;4.07;;;3.97;;
64678;SDS011;51094;53.864;27.676;2022-12-07T01:49:01;4.10;;;4.00;;
64678;SDS011;51094;53.864;27.676;2022-12-07T01:51:35;4.07;;;3.97;;
64678;SDS011;51094;53.864;27.676;2022-12-07T01:56:32;4.05;;;3.95;;
64678;SDS011;51094;53.864;27.676;2022-12-07T01:58:59;4.15;;;4.05;;
64678;SDS011;51094;53.864;27.676;2022-12-07T02:01:27;4.88;;;4.78;;
64678;SDS011;51094;53.864;27.676;2022-12-07T02:03:54;4.57;;;4.47;;
64678;SDS011;51094;53.864;27.676;2022-12-07T02:06:22;4.47;;;4.38;;
64678;SDS011;51094;53.864;27.676;2022-12-07T02:08:51;4.60;;;4.50;;
64678;SDS011;51094;53.864;27.676;2022-12-07T02:11:18;4.95;;;4.85;;
64678;SDS011;51094;53.864;27.676;2022-12-07T02:13:46;4.82;;;4.72;;
64678;SDS011;51094;53.864;27.676;2022-12-07T02:16:25;4.43;;;4.32;;
64678;SDS011;51094;53.864;27.676;2022-12-07T02:21:51;4.40;;;4.30;;
64678;SDS011;51094;53.864;27.676;2022-12-07T02:29:22;4.40;;;4.30;;
64678;SDS011;51094;53.864;27.676;2022-12-07T02:31:56;4.65;;;4.55;;
64678;SDS011;51094;53.864;27.676;2022-12-07T02:34:29;4.03;;;3.92;;
64678;SDS011;51094;53.864;27.676;2022-12-07T02:37:19;4.15;;;4.05;;
64678;SDS011;51094;53.864;27.676;2022-12-07T02:39:59;4.03;;;3.92;;
64678;SDS011;51094;53.864;27.676;2022-12-07T02:42:40;4.10;;;4.00;;
64678;SDS011;51094;53.864;27.676;2022-12-07T02:45:13;4.22;;;4.13;;
64678;SDS011;51094;53.864;27.676;2022-12-07T02:47:43;4.65;;;4.55;;
64678;SDS011;51094;53.864;27.676;2022-12-07T02:50:13;4.30;;;4.20;;
64678;SDS011;51094;53.864;27.676;2022-12-07T02:52:40;4.57;;;4.47;;
64678;SDS011;51094;53.864;27.676;2022-12-07T02:55:07;4.57;;;4.47;;
64678;SDS011;51094;53.864;27.676;2022-12-07T03:00:25;4.25;;;4.15;;
64678;SDS011;51094;53.864;27.676;2022-12-07T03:02:53;4.20;;;4.10;;
64678;SDS011;51094;53.864;27.676;2022-12-07T03:08:20;3.70;;;3.60;;
64678;SDS011;51094;53.864;27.676;2022-12-07T03:13:33;4.03;;;3.92;;
64678;SDS011;51094;53.864;27.676;2022-12-07T03:16:16;3.42;;;3.35;;
64678;SDS011;51094;53.864;27.676;2022-12-07T03:18:48;3.90;;;3.80;;
64678;SDS011;51094;53.864;27.676;2022-12-07T03:21:24;4.10;;;4.00;;
64678;SDS011;51094;53.864;27.676;2022-12-07T03:23:56;3.80;;;3.70;;
64678;SDS011;51094;53.864;27.676;2022-12-07T03:26:28;3.38;;;3.30;;
64678;SDS011;51094;53.864;27.676;2022-12-07T03:29:01;3.80;;;3.70;;
64678;SDS011;51094;53.864;27.676;2022-12-07T03:31:37;3.60;;;3.60;;
64678;SDS011;51094;53.864;27.676;2022-12-07T03:34:14;3.88;;;3.78;;
64678;SDS011;51094;53.864;27.676;2022-12-07T03:36:53;3.60;;;3.60;;
64678;SDS011;51094;53.864;27.676;2022-12-07T03:41:54;3.65;;;3.65;;
64678;SDS011;51094;53.864;27.676;2022-12-07T03:44:23;3.50;;;3.40;;
64678;SDS011;51094;53.864;27.676;2022-12-07T03:47:00;3.85;;;3.75;;
64678;SDS011;51094;53.864;27.676;2022-12-07T03:49:37;3.30;;;3.30;;
64678;SDS011;51094;53.864;27.676;2022-12-07T03:52:22;3.15;;;3.15;;
64678;SDS011;51094;53.864;27.676;2022-12-07T03:57:33;3.40;;;3.30;;
64678;SDS011;51094;53.864;27.676;2022-12-07T04:00:03;3.72;;;3.63;;
64678;SDS011;51094;53.864;27.676;2022-12-07T04:02:37;4.10;;;4.00;;
64678;SDS011;51094;53.864;27.676;2022-12-07T04:05:05;4.07;;;3.97;;
64678;SDS011;51094;53.864;27.676;2022-12-07T04:07:32;4.07;;;3.97;;
64678;SDS011;51094;53.864;27.676;2022-12-07T04:09:58;3.70;;;3.60;;
64678;SDS011;51094;53.864;27.676;2022-12-07T04:12:26;4.28;;;4.18;;
64678;SDS011;51094;53.864;27.676;2022-12-07T04:14:53;3.78;;;3.78;;
64678;SDS011;51094;53.864;27.676;2022-12-07T04:17:19;4.60;;;4.50;;
64678;SDS011;51094;53.864;27.676;2022-12-07T04:19:46;4.20;;;4.10;;
64678;SDS011;51094;53.864;27.676;2022-12-07T04:22:13;4.25;;;4.15;;
64678;SDS011;51094;53.864;27.676;2022-12-07T04:24:40;4.20;;;4.10;;
64678;SDS011;51094;53.864;27.676;2022-12-07T04:27:06;4.07;;;3.97;;
64678;SDS011;51094;53.864;27.676;2022-12-07T04:29:37;4.00;;;3.90;;
64678;SDS011;51094;53.864;27.676;2022-12-07T04:32:03;3.83;;;3.72;;
64678;SDS011;51094;53.864;27.676;2022-12-07T04:34:30;4.13;;;4.03;;
64678;SDS011;51094;53.864;27.676;2022-12-07T04:36:57;3.80;;;3.70;;
64678;SDS011;51094;53.864;27.676;2022-12-07T04:39:26;4.30;;;4.20;;
64678;SDS011;51094;53.864;27.676;2022-12-07T04:41:59;3.70;;;3.70;;
64678;SDS011;51094;53.864;27.676;2022-12-07T04:44:27;3.95;;;3.85;;
64678;SDS011;51094;53.864;27.676;2022-12-07T04:46:54;3.72;;;3.63;;
64678;SDS011;51094;53.864;27.676;2022-12-07T04:49:23;4.05;;;3.95;;
64678;SDS011;51094;53.864;27.676;2022-12-07T04:51:51;3.78;;;3.67;;
64678;SDS011;51094;53.864;27.676;2022-12-07T04:54:17;3.92;;;3.83;;
64678;SDS011;51094;53.864;27.676;2022-12-07T04:56:45;4.00;;;3.90;;
64678;SDS011;51094;53.864;27.676;2022-12-07T04:59:13;3.50;;;3.50;;
64678;SDS011;51094;53.864;27.676;2022-12-07T05:01:42;3.45;;;3.45;;
64678;SDS011;51094;53.864;27.676;2022-12-07T05:04:12;3.60;;;3.50;;
64678;SDS011;51094;53.864;27.676;2022-12-07T05:06:39;3.97;;;3.95;;
64678;SDS011;51094;53.864;27.676;2022-12-07T05:09:06;3.42;;;3.42;;
64678;SDS011;51094;53.864;27.676;2022-12-07T05:11:33;3.55;;;3.45;;
64678;SDS011;51094;53.864;27.676;2022-12-07T05:14:11;3.50;;;3.40;;
64678;SDS011;51094;53.864;27.676;2022-12-07T05:16:38;3.50;;;3.45;;
64678;SDS011;51094;53.864;27.676;2022-12-07T05:19:06;3.70;;;3.60;;
64678;SDS011;51094;53.864;27.676;2022-12-07T05:21:33;3.53;;;3.42;;
64678;SDS011;51094;53.864;27.676;2022-12-07T05:24:00;3.38;;;3.38;;
64678;SDS011;51094;53.864;27.676;2022-12-07T05:26:28;3.85;;;3.75;;
64678;SDS011;51094;53.864;27.676;2022-12-07T05:28:55;3.65;;;3.55;;
64678;SDS011;51094;53.864;27.676;2022-12-07T05:31:22;3.35;;;3.35;;
64678;SDS011;51094;53.864;27.676;2022-12-07T05:33:51;3.53;;;3.42;;
64678;SDS011;51094;53.864;27.676;2022-12-07T05:36:18;3.20;;;3.20;;
64678;SDS011;51094;53.864;27.676;2022-12-07T05:38:45;3.33;;;3.30;;
64678;SDS011;51094;53.864;27.676;2022-12-07T05:41:15;3.33;;;3.28;;
64678;SDS011;51094;53.864;27.676;2022-12-07T05:46:29;3.13;;;3.08;;
64678;SDS011;51094;53.864;27.676;2022-12-07T05:48:56;3.70;;;3.60;;
64678;SDS011;51094;53.864;27.676;2022-12-07T05:51:23;3.58;;;3.47;;
64678;SDS011;51094;53.864;27.676;2022-12-07T05:53:50;3.63;;;3.63;;
64678;SDS011;51094;53.864;27.676;2022-12-07T05:56:16;3.85;;;3.75;;
64678;SDS011;51094;53.864;27.676;2022-12-07T05:58:43;3.97;;;3.88;;
64678;SDS011;51094;53.864;27.676;2022-12-07T06:01:29;3.95;;;3.85;;
64678;SDS011;51094;53.864;27.676;2022-12-07T06:03:56;3.88;;;3.78;;
64678;SDS011;51094;53.864;27.676;2022-12-07T06:06:23;4.00;;;3.90;;
64678;SDS011;51094;53.864;27.676;2022-12-07T06:08:50;4.05;;;3.95;;
64678;SDS011;51094;53.864;27.676;2022-12-07T06:11:17;4.18;;;4.07;;
64678;SDS011;51094;53.864;27.676;2022-12-07T06:14:03;4.10;;;4.00;;
64678;SDS011;51094;53.864;27.676;2022-12-07T06:16:29;4.30;;;4.20;;
64678;SDS011;51094;53.864;27.676;2022-12-07T06:18:56;4.38;;;4.28;;
64678;SDS011;51094;53.864;27.676;2022-12-07T06:21:23;4.40;;;4.30;;
64678;SDS011;51094;53.864;27.676;2022-12-07T06:23:52;4.20;;;4.10;;
64678;SDS011;51094;53.864;27.676;2022-12-07T06:26:19;4.30;;;4.20;;
64678;SDS011;51094;53.864;27.676;2022-12-07T06:28:46;4.20;;;4.10;;
64678;SDS011;51094;53.864;27.676;2022-12-07T06:31:13;4.30;;;4.20;;
64678;SDS011;51094;53.864;27.676;2022-12-07T06:33:41;4.03;;;3.97;;
64678;SDS011;51094;53.864;27.676;2022-12-07T06:36:09;4.50;;;4.40;;
64678;SDS011;51094;53.864;27.676;2022-12-07T06:38:36;3.90;;;3.80;;
64678;SDS011;51094;53.864;27.676;2022-12-07T06:41:03;4.50;;;4.40;;
64678;SDS011;51094;53.864;27.676;2022-12-07T06:43:30;4.20;;;4.10;;
64678;SDS011;51094;53.864;27.676;2022-12-07T06:45:56;4.10;;;4.00;;
64678;SDS011;51094;53.864;27.676;2022-12-07T06:48:23;4.65;;;4.55;;
64678;SDS011;51094;53.864;27.676;2022-12-07T06:50:50;4.15;;;4.05;;
64678;SDS011;51094;53.864;27.676;2022-12-07T06:53:21;4.30;;;4.20;;
64678;SDS011;51094;53.864;27.676;2022-12-07T06:55:48;4.32;;;4.22;;
64678;SDS011;51094;53.864;27.676;2022-12-07T06:58:16;3.92;;;3.83;;
64678;SDS011;51094;53.864;27.676;2022-12-07T07:00:43;3.88;;;3.88;;
64678;SDS011;51094;53.864;27.676;2022-12-07T07:03:10;4.03;;;3.92;;
64678;SDS011;51094;53.864;27.676;2022-12-07T07:05:37;5.10;;;4.90;;
64678;SDS011;51094;53.864;27.676;2022-12-07T07:08:04;4.38;;;4.28;;
64678;SDS011;51094;53.864;27.676;2022-12-07T07:10:49;3.97;;;3.88;;
64678;SDS011;51094;53.864;27.676;2022-12-07T07:13:17;4.45;;;4.35;;
64678;SDS011;51094;53.864;27.676;2022-12-07T07:15:43;5.18;;;5.07;;
64678;SDS011;51094;53.864;27.676;2022-12-07T07:18:10;4.30;;;4.20;;
64678;SDS011;51094;53.864;27.676;2022-12-07T07:20:38;4.25;;;4.15;;
64678;SDS011;51094;53.864;27.676;2022-12-07T07:23:05;4.03;;;3.92;;
64678;SDS011;51094;53.864;27.676;2022-12-07T07:25:33;4.40;;;4.30;;
64678;SDS011;51094;53.864;27.676;2022-12-07T07:28:00;4.78;;;4.68;;
64678;SDS011;51094;53.864;27.676;2022-12-07T07:30:27;4.72;;;4.63;;
64678;SDS011;51094;53.864;27.676;2022-12-07T07:33:00;4.53;;;4.43;;
64678;SDS011;51094;53.864;27.676;2022-12-07T07:35:29;4.20;;;4.10;;
64678;SDS011;51094;53.864;27.676;2022-12-07T07:37:57;4.25;;;4.15;;
64678;SDS011;51094;53.864;27.676;2022-12-07T07:40:25;4.57;;;4.47;;
64678;SDS011;51094;53.864;27.676;2022-12-07T07:42:53;4.30;;;4.20;;
64678;SDS011;51094;53.864;27.676;2022-12-07T07:45:21;4.10;;;4.00;;
64678;SDS011;51094;53.864;27.676;2022-12-07T07:47:49;4.07;;;3.97;;
64678;SDS011;51094;53.864;27.676;2022-12-07T07:50:16;3.80;;;3.70;;
64678;SDS011;51094;53.864;27.676;2022-12-07T07:52:43;3.92;;;3.83;;
64678;SDS011;51094;53.864;27.676;2022-12-07T07:55:12;3.97;;;3.88;;
64678;SDS011;51094;53.864;27.676;2022-12-07T07:57:39;3.75;;;3.65;;
64678;SDS011;51094;53.864;27.676;2022-12-07T08:00:07;3.80;;;3.70;;
64678;SDS011;51094;53.864;27.676;2022-12-07T08:02:39;4.20;;;4.10;;
64678;SDS011;51094;53.864;27.676;2022-12-07T08:05:06;3.67;;;3.58;;
64678;SDS011;51094;53.864;27.676;2022-12-07T08:07:35;3.20;;;3.20;;
64678;SDS011;51094;53.864;27.676;2022-12-07T08:10:02;3.95;;;3.85;;
64678;SDS011;51094;53.864;27.676;2022-12-07T08:12:30;3.92;;;3.83;;
64678;SDS011;51094;53.864;27.676;2022-12-07T08:14:57;3.65;;;3.60;;
64678;SDS011;51094;53.864;27.676;2022-12-07T08:17:24;4.03;;;3.92;;
64678;SDS011;51094;53.864;27.676;2022-12-07T08:19:54;3.63;;;3.53;;
64678;SDS011;51094;53.864;27.676;2022-12-07T08:22:27;3.80;;;3.70;;
64678;SDS011;51094;53.864;27.676;2022-12-07T08:24:54;3.85;;;3.75;;
64678;SDS011;51094;53.864;27.676;2022-12-07T08:27:20;3.70;;;3.60;;
64678;SDS011;51094;53.864;27.676;2022-12-07T08:29:50;3.45;;;3.40;;
64678;SDS011;51094;53.864;27.676;2022-12-07T08:32:17;3.83;;;3.72;;
64678;SDS011;51094;53.864;27.676;2022-12-07T08:34:43;3.50;;;3.45;;
64678;SDS011;51094;53.864;27.676;2022-12-07T08:37:10;3.58;;;3.55;;
64678;SDS011;51094;53.864;27.676;2022-12-07T08:39:37;3.47;;;3.47;;
64678;SDS011;51094;53.864;27.676;2022-12-07T08:42:04;3.80;;;3.70;;
64678;SDS011;51094;53.864;27.676;2022-12-07T08:44:31;3.60;;;3.50;;
64678;SDS011;51094;53.864;27.676;2022-12-07T08:46:59;3.22;;;3.22;;
64678;SDS011;51094;53.864;27.676;2022-12-07T08:49:35;3.42;;;3.33;;
64678;SDS011;51094;53.864;27.676;2022-12-07T08:52:05;3.50;;;3.50;;
64678;SDS011;51094;53.864;27.676;2022-12-07T08:54:33;3.15;;;3.15;;
64678;SDS011;51094;53.864;27.676;2022-12-07T08:57:02;3.75;;;3.65;;
64678;SDS011;51094;53.864;27.676;2022-12-07T08:59:30;3.20;;;3.20;;
64678;SDS011;51094;53.864;27.676;2022-12-07T09:01:57;3.33;;;3.33;;
64678;SDS011;51094;53.864;27.676;2022-12-07T09:04:24;3.53;;;3.42;;
64678;SDS011;51094;53.864;27.676;2022-12-07T09:06:50;3.30;;;3.20;;
64678;SDS011;51094;53.864;27.676;2022-12-07T09:09:17;3.47;;;3.38;;
64678;SDS011;51094;53.864;27.676;2022-12-07T09:11:44;3.40;;;3.30;;
64678;SDS011;51094;53.864;27.676;2022-12-07T09:14:11;3.97;;;3.88;;
64678;SDS011;51094;53.864;27.676;2022-12-07T09:16:39;4.13;;;4.03;;
64678;SDS011;51094;53.864;27.676;2022-12-07T09:19:06;3.65;;;3.63;;
64678;SDS011;51094;53.864;27.676;2022-12-07T09:21:34;3.85;;;3.80;;
64678;SDS011;51094;53.864;27.676;2022-12-07T09:24:00;3.42;;;3.33;;
64678;SDS011;51094;53.864;27.676;2022-12-07T09:26:27;3.60;;;3.50;;
64678;SDS011;51094;53.864;27.676;2022-12-07T09:28:54;3.75;;;3.65;;
64678;SDS011;51094;53.864;27.676;2022-12-07T09:31:20;3.75;;;3.65;;
64678;SDS011;51094;53.864;27.676;2022-12-07T09:36:22;3.75;;;3.65;;
64678;SDS011;51094;53.864;27.676;2022-12-07T09:38:49;3.70;;;3.60;;
64678;SDS011;51094;53.864;27.676;2022-12-07T09:41:16;3.33;;;3.33;;
64678;SDS011;51094;53.864;27.676;2022-12-07T09:43:43;3.28;;;3.28;;
64678;SDS011;51094;53.864;27.676;2022-12-07T09:46:13;3.58;;;3.47;;
64678;SDS011;51094;53.864;27.676;2022-12-07T09:48:44;3.60;;;3.50;;
64678;SDS011;51094;53.864;27.676;2022-12-07T09:51:16;3.53;;;3.47;;
64678;SDS011;51094;53.864;27.676;2022-12-07T09:53:53;3.70;;;3.60;;
64678;SDS011;51094;53.864;27.676;2022-12-07T09:56:23;3.67;;;3.58;;
64678;SDS011;51094;53.864;27.676;2022-12-07T09:58:51;3.70;;;3.60;;
64678;SDS011;51094;53.864;27.676;2022-12-07T10:01:27;3.63;;;3.53;;
64678;SDS011;51094;53.864;27.676;2022-12-07T10:04:39;3.80;;;3.70;;
64678;SDS011;51094;53.864;27.676;2022-12-07T10:06:48;3.40;;;3.35;;
64678;SDS011;51094;53.864;27.676;2022-12-07T10:09:18;3.50;;;3.40;;
64678;SDS011;51094;53.864;27.676;2022-12-07T10:12:00;3.50;;;3.40;;
64678;SDS011;51094;53.864;27.676;2022-12-07T10:14:36;3.42;;;3.35;;
64678;SDS011;51094;53.864;27.676;2022-12-07T10:20:14;3.53;;;3.42;;
64678;SDS011;51094;53.864;27.676;2022-12-07T10:23:03;3.55;;;3.45;;
64678;SDS011;51094;53.864;27.676;2022-12-07T10:25:33;3.75;;;3.65;;
64678;SDS011;51094;53.864;27.676;2022-12-07T10:35:56;3.40;;;3.30;;
64678;SDS011;51094;53.864;27.676;2022-12-07T10:38:24;3.75;;;3.65;;
64678;SDS011;51094;53.864;27.676;2022-12-07T10:41:03;2.83;;;2.83;;
64678;SDS011;51094;53.864;27.676;2022-12-07T10:43:31;3.00;;;2.90;;
64678;SDS011;51094;53.864;27.676;2022-12-07T10:49:07;3.08;;;3.00;;
64678;SDS011;51094;53.864;27.676;2022-12-07T10:55:06;3.30;;;3.22;;
64678;SDS011;51094;53.864;27.676;2022-12-07T10:57:56;3.58;;;3.47;;
64678;SDS011;51094;53.864;27.676;2022-12-07T11:00:39;3.33;;;3.22;;
64678;SDS011;51094;53.864;27.676;2022-12-07T11:06:15;2.97;;;2.97;;
64678;SDS011;51094;53.864;27.676;2022-12-07T11:09:12;3.30;;;3.20;;
64678;SDS011;51094;53.864;27.676;2022-12-07T11:14:44;3.58;;;3.47;;
64678;SDS011;51094;53.864;27.676;2022-12-07T11:21:26;3.00;;;3.00;;
64678;SDS011;51094;53.864;27.676;2022-12-07T11:26:48;3.25;;;3.25;;
64678;SDS011;51094;53.864;27.676;2022-12-07T11:29:28;3.22;;;3.15;;
64678;SDS011;51094;53.864;27.676;2022-12-07T11:32:07;3.03;;;3.03;;
64678;SDS011;51094;53.864;27.676;2022-12-07T11:35:08;3.45;;;3.35;;
64678;SDS011;51094;53.864;27.676;2022-12-07T11:37:41;3.60;;;3.50;;
64678;SDS011;51094;53.864;27.676;2022-12-07T11:43:01;3.50;;;3.40;;
64678;SDS011;51094;53.864;27.676;2022-12-07T11:45:37;2.97;;;2.97;;
64678;SDS011;51094;53.864;27.676;2022-12-07T11:48:11;3.20;;;3.10;;
64678;SDS011;51094;53.864;27.676;2022-12-07T11:50:53;3.28;;;3.17;;
64678;SDS011;51094;53.864;27.676;2022-12-07T11:53:25;3.42;;;3.33;;
64678;SDS011;51094;53.864;27.676;2022-12-07T11:56:15;3.30;;;3.20;;
64678;SDS011;51094;53.864;27.676;2022-12-07T12:01:29;3.50;;;3.40;;
64678;SDS011;51094;53.864;27.676;2022-12-07T12:06:35;3.53;;;3.43;;
64678;SDS011;51094;53.864;27.676;2022-12-07T12:09:10;3.45;;;3.35;;
64678;SDS011;51094;53.864;27.676;2022-12-07T12:15:00;3.50;;;3.40;;
64678;SDS011;51094;53.864;27.676;2022-12-07T12:17:49;3.35;;;3.25;;
64678;SDS011;51094;53.864;27.676;2022-12-07T12:23:05;3.13;;;3.13;;
64678;SDS011;51094;53.864;27.676;2022-12-07T12:31:04;3.28;;;3.17;;
64678;SDS011;51094;53.864;27.676;2022-12-07T12:33:31;3.35;;;3.25;;
64678;SDS011;51094;53.864;27.676;2022-12-07T12:46:53;3.70;;;3.60;;
64678;SDS011;51094;53.864;27.676;2022-12-07T12:54:23;3.08;;;3.08;;
64678;SDS011;51094;53.864;27.676;2022-12-07T12:57:05;3.60;;;3.50;;
64678;SDS011;51094;53.864;27.676;2022-12-07T12:59:55;3.40;;;3.30;;
64678;SDS011;51094;53.864;27.676;2022-12-07T13:02:38;3.45;;;3.35;;
64678;SDS011;51094;53.864;27.676;2022-12-07T13:05:22;3.40;;;3.30;;
64678;SDS011;51094;53.864;27.676;2022-12-07T13:13:00;3.47;;;3.38;;
64678;SDS011;51094;53.864;27.676;2022-12-07T13:18:38;3.10;;;3.03;;
64678;SDS011;51094;53.864;27.676;2022-12-07T13:26:24;2.90;;;2.90;;
64678;SDS011;51094;53.864;27.676;2022-12-07T13:31:46;2.85;;;2.85;;
64678;SDS011;51094;53.864;27.676;2022-12-07T13:34:37;3.28;;;3.17;;
64678;SDS011;51094;53.864;27.676;2022-12-07T13:37:14;2.75;;;2.75;;
64678;SDS011;51094;53.864;27.676;2022-12-07T13:39:56;3.03;;;3.03;;
64678;SDS011;51094;53.864;27.676;2022-12-07T13:42:31;3.38;;;3.33;;
64678;SDS011;51094;53.864;27.676;2022-12-07T13:45:00;3.00;;;3.00;;
64678;SDS011;51094;53.864;27.676;2022-12-07T13:47:53;2.90;;;2.90;;
64678;SDS011;51094;53.864;27.676;2022-12-07T13:50:26;3.33;;;3.25;;
64678;SDS011;51094;53.864;27.676;2022-12-07T13:52:58;3.30;;;3.20;;
64678;SDS011;51094;53.864;27.676;2022-12-07T13:55:29;3.47;;;3.38;;
64678;SDS011;51094;53.864;27.676;2022-12-07T13:57:57;3.72;;;3.63;;
64678;SDS011;51094;53.864;27.676;2022-12-07T14:00:27;3.20;;;3.10;;
64678;SDS011;51094;53.864;27.676;2022-12-07T14:03:03;3.30;;;3.20;;
64678;SDS011;51094;53.864;27.676;2022-12-07T14:06:02;3.53;;;3.42;;
64678;SDS011;51094;53.864;27.676;2022-12-07T14:08:31;3.15;;;3.15;;
64678;SDS011;51094;53.864;27.676;2022-12-07T14:10:58;3.60;;;3.50;;
64678;SDS011;51094;53.864;27.676;2022-12-07T14:16:22;3.30;;;3.20;;
64678;SDS011;51094;53.864;27.676;2022-12-07T14:18:59;3.05;;;2.95;;
64678;SDS011;51094;53.864;27.676;2022-12-07T14:24:14;2.88;;;2.88;;
64678;SDS011;51094;53.864;27.676;2022-12-07T14:26:47;3.50;;;3.40;;
64678;SDS011;51094;53.864;27.676;2022-12-07T14:29:27;3.03;;;3.03;;
64678;SDS011;51094;53.864;27.676;2022-12-07T14:31:58;3.33;;;3.30;;
64678;SDS011;51094;53.864;27.676;2022-12-07T14:34:40;3.22;;;3.22;;
64678;SDS011;51094;53.864;27.676;2022-12-07T14:37:08;3.00;;;3.00;;
64678;SDS011;51094;53.864;27.676;2022-12-07T14:39:39;3.05;;;3.05;;
64678;SDS011;51094;53.864;27.676;2022-12-07T14:42:07;3.03;;;3.03;;
64678;SDS011;51094;53.864;27.676;2022-12-07T14:44:33;3.60;;;3.50;;
64678;SDS011;51094;53.864;27.676;2022-12-07T14:47:01;3.20;;;3.17;;
64678;SDS011;51094;53.864;27.676;2022-12-07T14:49:48;3.00;;;3.00;;
64678;SDS011;51094;53.864;27.676;2022-12-07T14:52:16;3.33;;;3.22;;
64678;SDS011;51094;53.864;27.676;2022-12-07T14:55:14;3.30;;;3.30;;
64678;SDS011;51094;53.864;27.676;2022-12-07T14:57:46;2.92;;;2.92;;
64678;SDS011;51094;53.864;27.676;2022-12-07T15:00:14;3.83;;;3.72;;
64678;SDS011;51094;53.864;27.676;2022-12-07T15:02:42;3.13;;;3.13;;
64678;SDS011;51094;53.864;27.676;2022-12-07T15:05:10;3.30;;;3.30;;
64678;SDS011;51094;53.864;27.676;2022-12-07T15:07:41;2.97;;;2.97;;
64678;SDS011;51094;53.864;27.676;2022-12-07T15:10:22;3.30;;;3.30;;
64678;SDS011;51094;53.864;27.676;2022-12-07T15:13:02;4.35;;;4.25;;
64678;SDS011;51094;53.864;27.676;2022-12-07T15:16:08;3.08;;;2.97;;
64678;SDS011;51094;53.864;27.676;2022-12-07T15:18:37;3.28;;;3.20;;
64678;SDS011;51094;53.864;27.676;2022-12-07T15:21:14;3.50;;;3.40;;
64678;SDS011;51094;53.864;27.676;2022-12-07T15:23:45;3.00;;;3.00;;
64678;SDS011;51094;53.864;27.676;2022-12-07T15:26:13;3.10;;;3.10;;
64678;SDS011;51094;53.864;27.676;2022-12-07T15:31:11;2.75;;;2.75;;
64678;SDS011;51094;53.864;27.676;2022-12-07T15:33:59;3.05;;;3.05;;
64678;SDS011;51094;53.864;27.676;2022-12-07T15:36:27;3.17;;;3.17;;
64678;SDS011;51094;53.864;27.676;2022-12-07T15:38:55;3.10;;;3.10;;
64678;SDS011;51094;53.864;27.676;2022-12-07T15:41:40;3.30;;;3.22;;
64678;SDS011;51094;53.864;27.676;2022-12-07T15:44:08;3.08;;;3.08;;
64678;SDS011;51094;53.864;27.676;2022-12-07T15:46:57;2.88;;;2.88;;
64678;SDS011;51094;53.864;27.676;2022-12-07T15:49:24;3.20;;;3.10;;
64678;SDS011;51094;53.864;27.676;2022-12-07T15:51:50;3.33;;;3.33;;
64678;SDS011;51094;53.864;27.676;2022-12-07T15:54:19;3.10;;;3.10;;
64678;SDS011;51094;53.864;27.676;2022-12-07T15:56:47;3.25;;;3.15;;
64678;SDS011;51094;53.864;27.676;2022-12-07T15:59:14;2.90;;;2.90;;
64678;SDS011;51094;53.864;27.676;2022-12-07T16:01:41;2.88;;;2.88;;
64678;SDS011;51094;53.864;27.676;2022-12-07T16:04:08;3.33;;;3.25;;
64678;SDS011;51094;53.864;27.676;2022-12-07T16:06:36;3.10;;;3.10;;
64678;SDS011;51094;53.864;27.676;2022-12-07T16:09:03;3.33;;;3.33;;
64678;SDS011;51094;53.864;27.676;2022-12-07T16:11:30;3.17;;;3.17;;
64678;SDS011;51094;53.864;27.676;2022-12-07T16:13:57;2.97;;;2.97;;
64678;SDS011;51094;53.864;27.676;2022-12-07T16:16:28;3.47;;;3.47;;
64678;SDS011;51094;53.864;27.676;2022-12-07T16:18:54;3.42;;;3.33;;
64678;SDS011;51094;53.864;27.676;2022-12-07T16:21:21;3.13;;;3.08;;
64678;SDS011;51094;53.864;27.676;2022-12-07T16:23:51;3.20;;;3.20;;
64678;SDS011;51094;53.864;27.676;2022-12-07T16:26:18;2.83;;;2.83;;
64678;SDS011;51094;53.864;27.676;2022-12-07T16:28:50;3.20;;;3.20;;
64678;SDS011;51094;53.864;27.676;2022-12-07T16:31:19;3.80;;;3.70;;
64678;SDS011;51094;53.864;27.676;2022-12-07T16:33:54;3.00;;;3.00;;
64678;SDS011;51094;53.864;27.676;2022-12-07T16:36:23;2.70;;;2.70;;
64678;SDS011;51094;53.864;27.676;2022-12-07T16:39:13;2.88;;;2.78;;
64678;SDS011;51094;53.864;27.676;2022-12-07T16:41:40;2.67;;;2.67;;
64678;SDS011;51094;53.864;27.676;2022-12-07T16:44:08;3.03;;;3.00;;
64678;SDS011;51094;53.864;27.676;2022-12-07T16:46:37;3.38;;;3.30;;
64678;SDS011;51094;53.864;27.676;2022-12-07T16:49:05;3.33;;;3.22;;
64678;SDS011;51094;53.864;27.676;2022-12-07T16:51:33;3.40;;;3.30;;
64678;SDS011;51094;53.864;27.676;2022-12-07T16:54:03;3.05;;;3.05;;
64678;SDS011;51094;53.864;27.676;2022-12-07T16:56:30;2.88;;;2.78;;
64678;SDS011;51094;53.864;27.676;2022-12-07T16:58:59;3.17;;;3.17;;
64678;SDS011;51094;53.864;27.676;2022-12-07T17:01:27;3.58;;;3.47;;
64678;SDS011;51094;53.864;27.676;2022-12-07T17:03:57;3.75;;;3.65;;
64678;SDS011;51094;53.864;27.676;2022-12-07T17:06:26;3.60;;;3.50;;